Welcome to Northern Hawkes Bay. New Zealand.
PWS Header
      nz Flag



Hit Counter


W3C Valid W3C Valid logo


    Wairoa

Select any of the Stations below to visit their websites.










Historic Data from Weather Underground
Select the location of interest below. Wairoa is the default. Please have patience, this Data is slow to load in.
Northern Hawkes Bay Historical Data
Daily Summary for April 7, 2017 Units:  Metric    English   Both
« Previous Day
Next Day »
Daily Weekly Monthly Yearly Custom
  High: Low: Average:
Temperature: 19.4 °C 11.5 °C 14.6 °C
Dew Point: 12.7 °C 7.3 °C 10.4 °C
Humidity: 98% 57% 77%
Wind Speed: 19.5km/h 0.0km/h 7.3km/h
Wind Gust: 33.1km/h - -
Wind- - SSW
Pressure: 1025.3 hPa 1009.7 hPa -
Precipitation: 0.3 mm    
Historical Graphs
 
 
Tabular Data for April 7, 2017
Time Temperature Dew Point Pressure Wind Wind Speed Wind Gust Humidity Rainfall Rate (Hourly) solar
00:03 12.9 °C 9.2 °C 1009.7 hPa Calm   1.1 km/h 78% 0.0 mm 0 W/m2
00:09 13.1 °C 9.2 °C 1009.7 hPa Calm   1.1 km/h 77% 0.0 mm 0 W/m2
00:15 13.0 °C 9.1 °C 1009.7 hPa Calm     77% 0.0 mm 0 W/m2
00:21 12.8 °C 9.1 °C 1009.7 hPa Calm     78% 0.0 mm 0 W/m2
00:27 12.7 °C 9.2 °C 1009.7 hPa Calm     79% 0.0 mm 0 W/m2
00:33 12.6 °C 9.1 °C 1009.7 hPa Calm     79% 0.0 mm 0 W/m2
00:39 12.5 °C 8.9 °C 1010.0 hPa Calm     79% 0.0 mm 0 W/m2
00:45 12.6 °C 9.2 °C 1010.0 hPa Calm     80% 0.0 mm 0 W/m2
00:51 12.3 °C 9.1 °C 1009.7 hPa Calm     81% 0.0 mm 0 W/m2
00:57 12.2 °C 9.2 °C 1009.7 hPa Calm     82% 0.0 mm 0 W/m2
01:03 11.9 °C 9.1 °C 1010.0 hPa Calm     83% 0.0 mm 0 W/m2
01:09 11.9 °C 9.4 °C 1010.0 hPa Calm     85% 0.0 mm 0 W/m2
01:15 11.9 °C 9.6 °C 1010.0 hPa Calm     86% 0.0 mm 0 W/m2
01:21 12.0 °C 9.6 °C 1010.0 hPa Calm     85% 0.0 mm 0 W/m2
01:27 11.8 °C 9.4 °C 1010.0 hPa Calm     85% 0.0 mm 0 W/m2
01:33 11.6 °C 9.3 °C 1010.4 hPa Calm     86% 0.0 mm 0 W/m2
01:39 11.7 °C 9.6 °C 1010.0 hPa Calm     87% 0.0 mm 0 W/m2
01:45 11.8 °C 9.7 °C 1010.4 hPa Calm     87% 0.0 mm 0 W/m2
01:51 12.1 °C 9.8 °C 1010.4 hPa Calm   2.6 km/h 86% 0.0 mm 0 W/m2
01:57 12.2 °C 9.8 °C 1010.4 hPa Calm   7.2 km/h 85% 0.0 mm 0 W/m2
02:03 12.4 °C 9.9 °C 1010.4 hPa Calm   7.2 km/h 85% 0.0 mm 0 W/m2
02:09 12.5 °C 10.1 °C 1010.4 hPa Calm     85% 0.0 mm 0 W/m2
02:15 12.5 °C 10.1 °C 1010.4 hPa Calm     85% 0.0 mm 0 W/m2
02:21 12.5 °C 10.2 °C 1010.4 hPa Calm     86% 0.0 mm 0 W/m2
02:27 12.5 °C 10.2 °C 1010.7 hPa Calm     86% 0.0 mm 0 W/m2
02:33 12.5 °C 10.2 °C 1010.7 hPa Calm     86% 0.0 mm 0 W/m2
02:40 12.4 °C 10.1 °C 1010.7 hPa Calm     86% 0.0 mm 0 W/m2
02:45 12.3 °C 10.1 °C 1010.7 hPa Calm     86% 0.0 mm 0 W/m2
02:51 12.2 °C 10.1 °C 1010.7 hPa Calm     87% 0.0 mm 0 W/m2
02:57 12.1 °C 10.2 °C 1010.7 hPa Calm   3.5 km/h 88% 0.0 mm 0 W/m2
03:03 11.9 °C 10.3 °C 1010.7 hPa Calm   3.5 km/h 90% 0.0 mm 0 W/m2
03:09 11.8 °C 10.2 °C 1010.7 hPa Calm     90% 0.0 mm 0 W/m2
03:15 11.6 °C 10.2 °C 1010.7 hPa Calm     91% 0.0 mm 0 W/m2
03:21 11.6 °C 10.3 °C 1011.1 hPa Calm     92% 0.0 mm 0 W/m2
03:27 11.6 °C 10.3 °C 1011.1 hPa Calm     92% 0.0 mm 0 W/m2
03:33 11.6 °C 10.5 °C 1011.1 hPa Calm     93% 0.0 mm 0 W/m2
03:39 11.6 °C 10.5 °C 1011.1 hPa Calm     93% 0.0 mm 0 W/m2
03:45 11.7 °C 10.6 °C 1011.4 hPa Calm     93% 0.0 mm 0 W/m2
03:51 11.7 °C 10.6 °C 1011.4 hPa Calm     93% 0.0 mm 0 W/m2
03:57 11.8 °C 10.9 °C 1011.1 hPa Calm     94% 0.0 mm 0 W/m2
04:03 11.8 °C 10.9 °C 1011.4 hPa Calm   2.6 km/h 94% 0.0 mm 0 W/m2
04:09 11.9 °C 10.9 °C 1011.4 hPa Calm   2.6 km/h 94% 0.0 mm 0 W/m2
04:15 12.2 °C 11.3 °C 1011.4 hPa Calm   5.0 km/h 94% 0.0 mm 0 W/m2
04:21 12.3 °C 11.4 °C 1011.7 hPa North 1.1 km/h 5.0 km/h 94% 0.0 mm 0 W/m2
04:27 12.2 °C 11.1 °C 1011.7 hPa Calm   7.2 km/h 93% 0.0 mm 0 W/m2
04:33 12.2 °C 11.1 °C 1011.7 hPa Calm   8.7 km/h 93% 0.0 mm 0 W/m2
04:39 12.3 °C 11.2 °C 1011.7 hPa NW 2.6 km/h 11.1 km/h 93% 0.0 mm 0 W/m2
04:45 12.2 °C 11.1 °C 1012.1 hPa Calm   11.1 km/h 93% 0.0 mm 0 W/m2
04:51 12.1 °C 11.0 °C 1012.1 hPa Calm   7.2 km/h 93% 0.0 mm 0 W/m2
04:57 12.2 °C 11.3 °C 1012.1 hPa Calm   6.1 km/h 94% 0.0 mm 0 W/m2
05:03 12.3 °C 11.4 °C 1012.1 hPa Calm     94% 0.0 mm 0 W/m2
05:09 12.4 °C 11.4 °C 1012.1 hPa Calm     94% 0.0 mm 0 W/m2
05:15 12.3 °C 11.5 °C 1012.1 hPa Calm     95% 0.0 mm 0 W/m2
05:21 12.5 °C 11.9 °C 1012.1 hPa Calm   3.5 km/h 96% 0.0 mm 0 W/m2
05:27 12.4 °C 11.8 °C 1012.1 hPa Calm   3.5 km/h 96% 0.0 mm 0 W/m2
05:33 12.7 °C 12.2 °C 1012.4 hPa Calm   7.2 km/h 97% 0.0 mm 0 W/m2
05:39 12.3 °C 11.7 °C 1012.4 hPa WNW 3.5 km/h 8.7 km/h 96% 0.0 mm 0 W/m2
05:45 11.9 °C 11.3 °C 1012.8 hPa NNW 3.5 km/h 7.2 km/h 96% 0.0 mm 0 W/m2
05:51 11.8 °C 11.2 °C 1012.8 hPa Calm   7.2 km/h 96% 0.0 mm 0 W/m2
05:57 11.7 °C 11.2 °C 1012.8 hPa Calm   6.1 km/h 97% 0.0 mm 0 W/m2
06:03 11.6 °C 11.2 °C 1013.1 hPa Calm   6.1 km/h 97% 0.0 mm 0 W/m2
06:09 11.6 °C 11.2 °C 1013.1 hPa Calm   6.1 km/h 97% 0.0 mm 0 W/m2
06:15 11.6 °C 11.2 °C 1013.1 hPa Calm   6.1 km/h 97% 0.0 mm 0 W/m2
06:21 11.5 °C 11.2 °C 1013.4 hPa Calm   6.1 km/h 98% 0.0 mm 0 W/m2
06:27 11.5 °C 11.2 °C 1013.4 hPa Calm     98% 0.0 mm 0 W/m2
06:33 11.5 °C 11.2 °C 1013.4 hPa Calm     98% 0.0 mm 1 W/m2
06:39 11.5 °C 11.2 °C 1013.4 hPa Calm   5.0 km/h 98% 0.0 mm 4 W/m2
06:45 11.5 °C 11.2 °C 1013.4 hPa Calm   5.0 km/h 98% 0.0 mm 8 W/m2
06:51 11.5 °C 11.2 °C 1013.8 hPa North 1.1 km/h 3.5 km/h 98% 0.0 mm 19 W/m2
06:57 11.5 °C 11.2 °C 1013.8 hPa Calm   3.5 km/h 98% 0.0 mm 29 W/m2
07:03 11.6 °C 11.3 °C 1013.8 hPa NNW 2.6 km/h 3.5 km/h 98% 0.0 mm 28 W/m2
07:09 11.7 °C 11.4 °C 1013.8 hPa Calm   5.0 km/h 98% 0.0 mm 20 W/m2
07:15 11.7 °C 11.4 °C 1014.1 hPa Calm   5.0 km/h 98% 0.0 mm 23 W/m2
07:21 11.8 °C 11.5 °C 1014.4 hPa Calm     98% 0.0 mm 37 W/m2
07:27 12.0 °C 11.6 °C 1014.1 hPa Calm     97% 0.0 mm 54 W/m2
07:33 12.2 °C 11.7 °C 1014.4 hPa Calm     97% 0.0 mm 79 W/m2
07:39 12.5 °C 12.1 °C 1014.4 hPa Calm     97% 0.0 mm 63 W/m2
07:45 12.5 °C 12.1 °C 1014.4 hPa Calm   3.5 km/h 97% 0.0 mm 81 W/m2
07:51 12.6 °C 12.2 °C 1014.8 hPa Calm   5.0 km/h 97% 0.0 mm 85 W/m2
07:57 12.9 °C 12.4 °C 1014.8 hPa Calm   5.0 km/h 97% 0.0 mm 67 W/m2
08:03 13.1 °C 12.7 °C 1015.1 hPa SSW 8.7 km/h 14.8 km/h 97% 0.0 mm 82 W/m2
08:10 13.5 °C 12.6 °C 1015.1 hPa SSW 11.1 km/h 14.8 km/h 94% 0.0 mm 87 W/m2
08:15 13.9 °C 11.9 °C 1015.1 hPa SW 6.1 km/h 15.8 km/h 88% 0.0 mm 77 W/m2
08:21 14.0 °C 11.5 °C 1015.1 hPa SSW 6.1 km/h 15.8 km/h 85% 0.0 mm 112 W/m2
08:27 14.0 °C 11.2 °C 1015.5 hPa SSW 8.7 km/h 17.2 km/h 83% 0.3 mm 145 W/m2
08:33 14.2 °C 11.2 °C 1015.5 hPa SSW 7.2 km/h 18.3 km/h 82% 0.3 mm 152 W/m2
08:37 14.4 °C 11.6 °C 1015.5 hPa SSW 13.4 km/h 18.3 km/h 83% 0.3 mm 182 W/m2
08:43 14.6 °C 11.4 °C 1015.5 hPa SSW 8.7 km/h 17.2 km/h 81% 0.3 mm 114 W/m2
08:49 14.6 °C 11.4 °C 1015.8 hPa SSW 6.1 km/h 14.8 km/h 81% 0.3 mm 138 W/m2
08:55 14.6 °C 11.2 °C 1015.8 hPa SSW 12.2 km/h 17.2 km/h 80% 0.3 mm 161 W/m2
09:01 14.7 °C 11.1 °C 1015.8 hPa SW 6.1 km/h 15.8 km/h 79% 0.3 mm 204 W/m2
09:07 15.1 °C 11.3 °C 1016.1 hPa SW 6.1 km/h 15.8 km/h 78% 0.3 mm 191 W/m2
09:13 15.2 °C 11.2 °C 1016.1 hPa SW 8.7 km/h 13.4 km/h 77% 0.3 mm 165 W/m2
09:19 15.2 °C 11.2 °C 1016.1 hPa SW 9.7 km/h 13.4 km/h 77% 0.3 mm 159 W/m2
09:25 15.1 °C 10.9 °C 1016.1 hPa SW 11.1 km/h 18.3 km/h 76% 0.3 mm 156 W/m2
09:31 15.0 °C 11.0 °C 1016.5 hPa SW 11.1 km/h 18.3 km/h 77% 0.0 mm 164 W/m2
09:37 15.2 °C 11.4 °C 1016.5 hPa SW 9.7 km/h 15.8 km/h 78% 0.0 mm 150 W/m2
09:43 15.1 °C 11.1 °C 1016.5 hPa SW 11.1 km/h 14.8 km/h 77% 0.0 mm 151 W/m2
09:49 15.0 °C 10.8 °C 1016.5 hPa SW 7.2 km/h 14.8 km/h 76% 0.0 mm 202 W/m2
09:55 15.3 °C 11.1 °C 1016.8 hPa SW 6.1 km/h 13.4 km/h 76% 0.0 mm 263 W/m2
10:01 15.6 °C 11.4 °C 1016.8 hPa SW 8.7 km/h 15.8 km/h 76% 0.0 mm 183 W/m2
10:07 16.4 °C 11.8 °C 1016.8 hPa SW 8.7 km/h 13.4 km/h 74% 0.0 mm 208 W/m2
10:13 16.6 °C 11.6 °C 1017.2 hPa SW 8.7 km/h 14.8 km/h 72% 0.0 mm 247 W/m2
10:19 16.5 °C 11.4 °C 1017.2 hPa SW 6.1 km/h 18.3 km/h 72% 0.0 mm 232 W/m2
10:25 16.5 °C 11.4 °C 1017.2 hPa SSW 12.2 km/h 19.5 km/h 72% 0.0 mm 177 W/m2
10:31 16.9 °C 11.8 °C 1017.2 hPa SW 6.1 km/h 19.5 km/h 72% 0.0 mm 229 W/m2
10:37 16.9 °C 11.4 °C 1017.2 hPa SW 11.1 km/h 18.3 km/h 70% 0.0 mm 340 W/m2
10:43 17.0 °C 11.3 °C 1017.5 hPa SSW 9.7 km/h 18.3 km/h 69% 0.0 mm 351 W/m2
10:49 16.4 °C 11.1 °C 1017.8 hPa SSW 11.1 km/h 18.3 km/h 71% 0.0 mm 139 W/m2
10:55 15.6 °C 11.0 °C 1017.5 hPa SW 6.1 km/h 18.3 km/h 74% 0.0 mm 183 W/m2
11:01 15.4 °C 11.0 °C 1017.8 hPa SW 9.7 km/h 18.3 km/h 75% 0.0 mm 249 W/m2
11:07 15.7 °C 11.1 °C 1017.8 hPa SW 7.2 km/h 15.8 km/h 74% 0.0 mm 299 W/m2
11:13 16.1 °C 10.8 °C 1017.8 hPa SW 8.7 km/h 19.5 km/h 71% 0.0 mm 268 W/m2
11:20 16.0 °C 10.8 °C 1017.8 hPa SW 6.1 km/h 19.5 km/h 71% 0.0 mm 560 W/m2
11:25 16.6 °C 10.9 °C 1017.8 hPa SW 13.4 km/h 15.8 km/h 69% 0.0 mm 520 W/m2
11:31 16.7 °C 10.6 °C 1017.8 hPa SSW 12.2 km/h 18.3 km/h 67% 0.0 mm 531 W/m2
11:37 16.8 °C 10.7 °C 1017.8 hPa SSW 8.7 km/h 18.3 km/h 67% 0.0 mm 536 W/m2
11:43 16.8 °C 10.2 °C 1017.8 hPa SW 14.8 km/h 17.2 km/h 65% 0.0 mm 473 W/m2
11:47 16.6 °C 10.2 °C 1017.8 hPa SSW 8.7 km/h 17.2 km/h 66% 0.0 mm 437 W/m2
11:53 16.8 °C 10.2 °C 1017.8 hPa SSW 8.7 km/h 17.2 km/h 65% 0.0 mm 533 W/m2
11:59 17.1 °C 10.5 °C 1017.8 hPa SW 7.2 km/h 15.8 km/h 65% 0.0 mm 537 W/m2
12:05 17.4 °C 10.6 °C 1017.8 hPa SSW 5.0 km/h 14.8 km/h 64% 0.0 mm 536 W/m2
12:25 17.2 °C 9.9 °C 1018.2 hPa South 9.7 km/h 18.3 km/h 62% 0.0 mm 497 W/m2
12:31 17.1 °C 10.0 °C 1017.8 hPa SSW 6.1 km/h 18.3 km/h 63% 0.0 mm 526 W/m2
12:37 17.8 °C 10.7 °C 1018.2 hPa South 12.2 km/h 18.3 km/h 63% 0.0 mm 528 W/m2
12:43 17.3 °C 10.7 °C 1017.8 hPa South 12.2 km/h 20.9 km/h 65% 0.0 mm 525 W/m2
12:50 17.2 °C 10.3 °C 1017.8 hPa South 9.7 km/h 20.9 km/h 64% 0.0 mm 518 W/m2
12:55 17.3 °C 10.7 °C 1017.8 hPa South 7.2 km/h 13.4 km/h 65% 0.0 mm 505 W/m2
13:01 17.9 °C 11.2 °C 1017.8 hPa South 8.7 km/h 13.4 km/h 65% 0.0 mm 480 W/m2
13:07 17.8 °C 10.7 °C 1017.8 hPa SSW 7.2 km/h 18.3 km/h 63% 0.0 mm 501 W/m2
13:13 17.1 °C 10.2 °C 1017.8 hPa SSW 9.7 km/h 18.3 km/h 64% 0.0 mm 485 W/m2
13:19 17.6 °C 10.5 °C 1017.8 hPa SSW 11.1 km/h 15.8 km/h 63% 0.0 mm 456 W/m2
13:25 17.5 °C 10.4 °C 1017.8 hPa SSW 8.7 km/h 14.8 km/h 63% 0.0 mm 465 W/m2
13:31 17.8 °C 10.7 °C 1018.2 hPa SSW 9.7 km/h 17.2 km/h 63% 0.0 mm 223 W/m2
13:37 17.7 °C 10.6 °C 1017.8 hPa South 9.7 km/h 17.2 km/h 63% 0.0 mm 467 W/m2
13:43 18.0 °C 11.1 °C 1018.2 hPa SSW 9.7 km/h 14.8 km/h 64% 0.0 mm 418 W/m2
13:49 17.8 °C 10.7 °C 1018.2 hPa SSW 8.7 km/h 15.8 km/h 63% 0.0 mm 402 W/m2
13:55 18.0 °C 11.1 °C 1018.2 hPa SW 7.2 km/h 15.8 km/h 64% 0.0 mm 368 W/m2
14:01 18.8 °C 11.4 °C 1018.2 hPa South 5.0 km/h 14.8 km/h 62% 0.0 mm 390 W/m2
14:07 19.4 °C 11.2 °C 1018.2 hPa South 6.1 km/h 13.4 km/h 59% 0.0 mm 486 W/m2
14:13 19.2 °C 10.7 °C 1018.2 hPa South 9.7 km/h 13.4 km/h 58% 0.0 mm 139 W/m2
14:20 18.1 °C 10.4 °C 1018.5 hPa South 8.7 km/h 14.8 km/h 61% 0.0 mm 123 W/m2
14:25 18.1 °C 10.7 °C 1018.5 hPa South 7.2 km/h 14.8 km/h 62% 0.0 mm 92 W/m2
14:31 18.2 °C 10.6 °C 1018.5 hPa South 11.1 km/h 17.2 km/h 61% 0.0 mm 88 W/m2
14:37 17.8 °C 10.4 °C 1018.5 hPa South 6.1 km/h 15.8 km/h 62% 0.0 mm 87 W/m2
14:43 18.2 °C 10.3 °C 1018.5 hPa South 7.2 km/h 13.4 km/h 60% 0.0 mm 89 W/m2
14:49 18.4 °C 11.0 °C 1018.8 hPa South 9.7 km/h 13.4 km/h 62% 0.0 mm 103 W/m2
14:55 18.9 °C 11.2 °C 1018.8 hPa SSW 9.7 km/h 13.4 km/h 61% 0.0 mm 159 W/m2
15:01 18.5 °C 10.6 °C 1018.8 hPa South 9.7 km/h 14.8 km/h 60% 0.0 mm 345 W/m2
15:07 18.5 °C 10.8 °C 1018.8 hPa South 9.7 km/h 14.8 km/h 61% 0.0 mm 247 W/m2
15:13 17.8 °C 10.2 °C 1018.8 hPa South 6.1 km/h 13.4 km/h 61% 0.0 mm 173 W/m2
15:19 17.4 °C 10.3 °C 1018.8 hPa South 5.0 km/h 12.2 km/h 63% 0.0 mm 193 W/m2
15:25 17.6 °C 10.2 °C 1018.8 hPa South 6.1 km/h 9.7 km/h 62% 0.0 mm 121 W/m2
15:31 17.5 °C 10.4 °C 1018.8 hPa SSW 3.5 km/h 9.7 km/h 63% 0.0 mm 143 W/m2
15:37 18.4 °C 11.0 °C 1019.2 hPa SSE 1.1 km/h 7.2 km/h 62% 0.0 mm 342 W/m2
15:43 19.1 °C 10.4 °C 1019.2 hPa South 7.2 km/h 9.7 km/h 57% 0.0 mm 191 W/m2
15:49 18.6 °C 10.2 °C 1019.2 hPa SSW 7.2 km/h 12.2 km/h 58% 0.0 mm 297 W/m2
15:55 18.5 °C 10.1 °C 1019.5 hPa SSW 8.7 km/h 12.2 km/h 58% 0.0 mm 143 W/m2
16:01 17.3 °C 9.7 °C 1019.5 hPa South 8.7 km/h 12.2 km/h 61% 0.0 mm 118 W/m2
16:07 17.0 °C 9.9 °C 1019.2 hPa South 3.5 km/h 11.1 km/h 63% 0.0 mm 114 W/m2
16:13 17.4 °C 10.3 °C 1019.5 hPa SSW 7.2 km/h 12.2 km/h 63% 0.0 mm 126 W/m2
16:19 16.8 °C 9.9 °C 1019.5 hPa South 12.2 km/h 19.5 km/h 64% 0.0 mm 118 W/m2
16:25 16.4 °C 9.8 °C 1019.5 hPa South 18.3 km/h 23.3 km/h 65% 0.0 mm 139 W/m2
16:31 16.1 °C 9.8 °C 1019.5 hPa SSW 11.1 km/h 23.3 km/h 66% 0.0 mm 91 W/m2
16:37 16.0 °C 10.1 °C 1019.5 hPa SSW 15.8 km/h 24.5 km/h 68% 0.0 mm 96 W/m2
16:43 16.3 °C 9.9 °C 1019.9 hPa SSW 17.2 km/h 27.0 km/h 66% 0.0 mm 126 W/m2
16:50 16.4 °C 10.1 °C 1019.9 hPa SSW 17.2 km/h 27.0 km/h 66% 0.0 mm 86 W/m2
16:55 15.9 °C 9.6 °C 1020.2 hPa South 12.2 km/h 23.3 km/h 66% 0.0 mm 47 W/m2
17:01 15.8 °C 9.7 °C 1019.9 hPa South 8.7 km/h 23.3 km/h 67% 0.0 mm 43 W/m2
17:07 15.7 °C 9.8 °C 1020.2 hPa South 11.1 km/h 24.5 km/h 68% 0.0 mm 27 W/m2
17:13 15.7 °C 10.4 °C 1020.2 hPa South 17.2 km/h 24.5 km/h 71% 0.0 mm 19 W/m2
17:19 15.5 °C 10.1 °C 1020.5 hPa SSW 14.8 km/h 27.0 km/h 70% 0.0 mm 20 W/m2
17:25 15.4 °C 9.9 °C 1020.2 hPa SSW 13.4 km/h 30.6 km/h 70% 0.0 mm 14 W/m2
17:31 15.4 °C 10.2 °C 1020.5 hPa SSW 13.4 km/h 27.0 km/h 71% 0.0 mm 10 W/m2
17:37 15.4 °C 9.9 °C 1020.5 hPa SSW 9.7 km/h 20.9 km/h 70% 0.0 mm 8 W/m2
17:43 15.3 °C 9.7 °C 1020.5 hPa SSW 8.7 km/h 25.6 km/h 69% 0.0 mm 4 W/m2
17:49 15.4 °C 10.2 °C 1020.9 hPa SSW 14.8 km/h 25.6 km/h 71% 0.0 mm 2 W/m2
17:55 15.4 °C 9.9 °C 1020.9 hPa SSW 13.4 km/h 27.0 km/h 70% 0.0 mm 0 W/m2
18:01 15.4 °C 9.9 °C 1020.9 hPa SSW 13.4 km/h 27.0 km/h 70% 0.0 mm 0 W/m2
18:07 15.3 °C 9.9 °C 1020.9 hPa SSW 14.8 km/h 27.0 km/h 70% 0.0 mm 0 W/m2
18:13 15.2 °C 10.2 °C 1020.9 hPa SSW 8.7 km/h 24.5 km/h 72% 0.0 mm 0 W/m2
18:19 15.2 °C 9.8 °C 1021.2 hPa SSW 19.5 km/h 25.6 km/h 70% 0.0 mm 0 W/m2
18:25 15.2 °C 9.8 °C 1021.2 hPa SSW 12.2 km/h 28.0 km/h 70% 0.0 mm 0 W/m2
18:31 15.2 °C 9.6 °C 1021.2 hPa South 12.2 km/h 28.0 km/h 69% 0.0 mm 0 W/m2
18:37 15.1 °C 9.9 °C 1021.6 hPa South 17.2 km/h 24.5 km/h 71% 0.0 mm 0 W/m2
18:43 15.1 °C 9.7 °C 1021.6 hPa South 15.8 km/h 30.6 km/h 70% 0.0 mm 0 W/m2
18:49 15.1 °C 10.3 °C 1021.6 hPa South 17.2 km/h 30.6 km/h 73% 0.0 mm 0 W/m2
18:55 15.1 °C 10.3 °C 1021.6 hPa SSW 17.2 km/h 29.4 km/h 73% 0.0 mm 0 W/m2
19:01 15.1 °C 10.3 °C 1021.6 hPa South 11.1 km/h 24.5 km/h 73% 0.0 mm 0 W/m2
19:07 15.0 °C 10.0 °C 1021.6 hPa South 12.2 km/h 24.5 km/h 72% 0.0 mm 0 W/m2
19:13 15.0 °C 10.2 °C 1021.9 hPa SSW 13.4 km/h 24.5 km/h 73% 0.0 mm 0 W/m2
19:19 14.9 °C 10.3 °C 1021.9 hPa SSW 19.5 km/h 29.4 km/h 74% 0.0 mm 0 W/m2
19:25 14.9 °C 10.3 °C 1022.2 hPa SSW 14.8 km/h 29.4 km/h 74% 0.0 mm 0 W/m2
19:31 14.9 °C 10.1 °C 1022.2 hPa South 14.8 km/h 25.6 km/h 73% 0.0 mm 0 W/m2
19:37 14.9 °C 10.1 °C 1022.2 hPa South 11.1 km/h 28.0 km/h 73% 0.0 mm 0 W/m2
19:43 14.9 °C 9.9 °C 1022.2 hPa South 15.8 km/h 28.0 km/h 72% 0.0 mm 0 W/m2
19:49 14.9 °C 9.7 °C 1022.2 hPa South 9.7 km/h 33.1 km/h 71% 0.0 mm 0 W/m2
19:55 14.8 °C 9.6 °C 1022.6 hPa South 13.4 km/h 33.1 km/h 71% 0.0 mm 0 W/m2
20:01 14.8 °C 9.6 °C 1022.6 hPa SSW 12.2 km/h 27.0 km/h 71% 0.0 mm 0 W/m2
20:07 14.8 °C 9.4 °C 1022.9 hPa South 17.2 km/h 27.0 km/h 70% 0.0 mm 0 W/m2
20:13 14.8 °C 9.6 °C 1022.9 hPa SSW 17.2 km/h 24.5 km/h 71% 0.0 mm 0 W/m2
20:19 14.8 °C 9.4 °C 1022.9 hPa SSW 12.2 km/h 24.5 km/h 70% 0.0 mm 0 W/m2
20:25 14.8 °C 9.8 °C 1023.2 hPa SSW 14.8 km/h 24.5 km/h 72% 0.0 mm 0 W/m2
20:31 14.8 °C 9.4 °C 1023.2 hPa SSW 9.7 km/h 23.3 km/h 70% 0.0 mm 0 W/m2
20:37 14.8 °C 9.4 °C 1023.6 hPa SSW 9.7 km/h 21.9 km/h 70% 0.0 mm 0 W/m2
20:43 14.9 °C 9.7 °C 1023.2 hPa South 8.7 km/h 21.9 km/h 71% 0.0 mm 0 W/m2
20:49 14.8 °C 9.4 °C 1023.6 hPa SSW 13.4 km/h 21.9 km/h 70% 0.0 mm 0 W/m2
20:55 14.8 °C 9.6 °C 1023.6 hPa SSW 9.7 km/h 24.5 km/h 71% 0.0 mm 0 W/m2
21:01 14.8 °C 9.2 °C 1023.9 hPa SSW 11.1 km/h 21.9 km/h 69% 0.0 mm 0 W/m2
21:07 14.7 °C 9.5 °C 1023.9 hPa SSW 11.1 km/h 25.6 km/h 71% 0.0 mm 0 W/m2
21:13 14.7 °C 9.1 °C 1023.9 hPa SW 13.4 km/h 21.9 km/h 69% 0.0 mm 0 W/m2
21:19 14.7 °C 8.8 °C 1023.9 hPa SSW 9.7 km/h 23.3 km/h 68% 0.0 mm 0 W/m2
21:25 14.7 °C 9.1 °C 1023.9 hPa SSW 13.4 km/h 23.3 km/h 69% 0.0 mm 0 W/m2
21:31 14.7 °C 9.3 °C 1024.3 hPa SSW 12.2 km/h 23.3 km/h 70% 0.0 mm 0 W/m2
21:37 14.7 °C 9.3 °C 1024.3 hPa SSW 15.8 km/h 23.3 km/h 70% 0.0 mm 0 W/m2
21:43 14.6 °C 9.4 °C 1024.3 hPa SSW 12.2 km/h 28.0 km/h 71% 0.0 mm 0 W/m2
21:49 14.6 °C 9.0 °C 1024.3 hPa SSW 18.3 km/h 25.6 km/h 69% 0.0 mm 0 W/m2
21:55 14.6 °C 8.8 °C 1024.3 hPa South 8.7 km/h 25.6 km/h 68% 0.0 mm 0 W/m2
22:01 14.6 °C 9.6 °C 1024.3 hPa SSW 13.4 km/h 25.6 km/h 72% 0.0 mm 0 W/m2
22:07 14.6 °C 9.6 °C 1024.3 hPa SSW 17.2 km/h 25.6 km/h 72% 0.0 mm 0 W/m2
22:13 14.5 °C 9.3 °C 1024.6 hPa SSW 19.5 km/h 27.0 km/h 71% 0.0 mm 0 W/m2
22:19 14.6 °C 9.4 °C 1024.3 hPa SSW 13.4 km/h 27.0 km/h 71% 0.0 mm 0 W/m2
22:25 14.6 °C 9.4 °C 1024.6 hPa SSW 11.1 km/h 23.3 km/h 71% 0.0 mm 0 W/m2
22:31 14.7 °C 9.9 °C 1024.6 hPa SSW 17.2 km/h 25.6 km/h 73% 0.0 mm 0 W/m2
22:37 14.6 °C 10.0 °C 1024.6 hPa SW 13.4 km/h 25.6 km/h 74% 0.0 mm 0 W/m2
22:43 14.5 °C 9.3 °C 1024.9 hPa WSW 18.3 km/h 29.4 km/h 71% 0.0 mm 0 W/m2
22:49 14.4 °C 9.0 °C 1024.9 hPa WSW 18.3 km/h 29.4 km/h 70% 0.0 mm 0 W/m2
22:55 14.2 °C 8.6 °C 1024.9 hPa SW 14.8 km/h 27.0 km/h 69% 0.0 mm 0 W/m2
23:01 14.1 °C 8.7 °C 1024.9 hPa SW 13.4 km/h 27.0 km/h 70% 0.0 mm 0 W/m2
23:07 14.0 °C 8.8 °C 1024.9 hPa SW 17.2 km/h 27.0 km/h 71% 0.0 mm 0 W/m2
23:13 14.0 °C 8.0 °C 1024.9 hPa SW 15.8 km/h 25.6 km/h 67% 0.0 mm 0 W/m2
23:19 14.0 °C 7.6 °C 1024.9 hPa SW 14.8 km/h 23.3 km/h 65% 0.0 mm 0 W/m2
23:25 14.0 °C 7.3 °C 1024.9 hPa SW 14.8 km/h 19.5 km/h 64% 0.0 mm 0 W/m2
23:31 14.0 °C 8.8 °C 1025.3 hPa WSW 13.4 km/h 23.3 km/h 71% 0.0 mm 0 W/m2
23:37 13.7 °C 9.3 °C 1025.3 hPa West 8.7 km/h 23.3 km/h 75% 0.0 mm 0 W/m2
23:43 13.5 °C 9.3 °C 1025.3 hPa West 9.7 km/h 15.8 km/h 76% 0.0 mm 0 W/m2
23:49 13.4 °C 9.4 °C 1025.3 hPa West 7.2 km/h 15.8 km/h 77% 0.0 mm 0 W/m2
23:55 13.3 °C 9.3 °C 1025.3 hPa WSW 6.1 km/h 18.3 km/h 77% 0.0 mm 0 W/m2
Northern Hawkes Bay. New Zealand Historic Data
Compliments of Weather Underground - 1.75 mb